sensor_id;sensor_type;location;lat;lon;timestamp;P1;durP1;ratioP1;P2;durP2;ratioP2
12038;SDS011;6080;48.818;9.526;2023-04-24T03:01:58;22.77;;;21.67;;
12038;SDS011;6080;48.818;9.526;2023-04-24T03:04:24;22.93;;;21.87;;
12038;SDS011;6080;48.818;9.526;2023-04-24T03:06:51;26.27;;;25.07;;
12038;SDS011;6080;48.818;9.526;2023-04-24T03:09:22;15.87;;;15.13;;
12038;SDS011;6080;48.818;9.526;2023-04-24T03:11:48;10.73;;;10.27;;
12038;SDS011;6080;48.818;9.526;2023-04-24T03:14:15;10.57;;;9.93;;
12038;SDS011;6080;48.818;9.526;2023-04-24T03:16:41;16.90;;;16.10;;
12038;SDS011;6080;48.818;9.526;2023-04-24T03:19:07;7.97;;;7.30;;
12038;SDS011;6080;48.818;9.526;2023-04-24T03:21:33;8.80;;;8.17;;
12038;SDS011;6080;48.818;9.526;2023-04-24T03:23:59;8.97;;;8.27;;
12038;SDS011;6080;48.818;9.526;2023-04-24T03:26:25;11.93;;;11.03;;
12038;SDS011;6080;48.818;9.526;2023-04-24T03:28:51;11.10;;;10.60;;
12038;SDS011;6080;48.818;9.526;2023-04-24T03:31:17;11.77;;;11.20;;
12038;SDS011;6080;48.818;9.526;2023-04-24T03:33:44;11.97;;;11.47;;
12038;SDS011;6080;48.818;9.526;2023-04-24T03:36:10;12.37;;;11.80;;
12038;SDS011;6080;48.818;9.526;2023-04-24T03:38:36;12.20;;;11.53;;
12038;SDS011;6080;48.818;9.526;2023-04-24T03:41:01;12.07;;;11.27;;
12038;SDS011;6080;48.818;9.526;2023-04-24T03:43:27;11.53;;;10.97;;
12038;SDS011;6080;48.818;9.526;2023-04-24T03:45:53;12.97;;;12.40;;
12038;SDS011;6080;48.818;9.526;2023-04-24T03:48:19;12.40;;;11.33;;
12038;SDS011;6080;48.818;9.526;2023-04-24T03:50:44;12.83;;;12.10;;
12038;SDS011;6080;48.818;9.526;2023-04-24T03:53:10;16.00;;;15.30;;
12038;SDS011;6080;48.818;9.526;2023-04-24T03:55:36;24.97;;;23.77;;
12038;SDS011;6080;48.818;9.526;2023-04-24T03:58:02;13.63;;;12.97;;
12038;SDS011;6080;48.818;9.526;2023-04-24T04:00:28;19.57;;;18.63;;
12038;SDS011;6080;48.818;9.526;2023-04-24T04:02:58;25.97;;;24.57;;
12038;SDS011;6080;48.818;9.526;2023-04-24T04:05:24;25.70;;;24.43;;
12038;SDS011;6080;48.818;9.526;2023-04-24T04:07:49;18.00;;;17.13;;
12038;SDS011;6080;48.818;9.526;2023-04-24T04:10:15;12.87;;;11.87;;
12038;SDS011;6080;48.818;9.526;2023-04-24T04:12:42;11.77;;;11.27;;
12038;SDS011;6080;48.818;9.526;2023-04-24T04:15:08;8.23;;;7.93;;
12038;SDS011;6080;48.818;9.526;2023-04-24T04:17:34;7.27;;;6.97;;
12038;SDS011;6080;48.818;9.526;2023-04-24T04:20:00;7.00;;;6.60;;
12038;SDS011;6080;48.818;9.526;2023-04-24T04:22:26;7.90;;;7.57;;
12038;SDS011;6080;48.818;9.526;2023-04-24T04:24:52;12.50;;;11.77;;
12038;SDS011;6080;48.818;9.526;2023-04-24T04:27:18;13.80;;;13.10;;
12038;SDS011;6080;48.818;9.526;2023-04-24T04:29:44;8.83;;;8.50;;
12038;SDS011;6080;48.818;9.526;2023-04-24T04:32:10;13.93;;;13.10;;
12038;SDS011;6080;48.818;9.526;2023-04-24T04:34:36;14.23;;;13.43;;
12038;SDS011;6080;48.818;9.526;2023-04-24T04:37:03;21.30;;;20.20;;
12038;SDS011;6080;48.818;9.526;2023-04-24T04:39:28;30.77;;;29.27;;
12038;SDS011;6080;48.818;9.526;2023-04-24T04:41:55;10.87;;;10.43;;
12038;SDS011;6080;48.818;9.526;2023-04-24T04:44:21;11.73;;;11.13;;
12038;SDS011;6080;48.818;9.526;2023-04-24T04:46:47;12.87;;;12.23;;
12038;SDS011;6080;48.818;9.526;2023-04-24T04:49:13;10.20;;;9.70;;
12038;SDS011;6080;48.818;9.526;2023-04-24T04:51:41;12.33;;;11.83;;
12038;SDS011;6080;48.818;9.526;2023-04-24T04:54:07;12.53;;;11.93;;
12038;SDS011;6080;48.818;9.526;2023-04-24T04:56:33;20.90;;;19.70;;
12038;SDS011;6080;48.818;9.526;2023-04-24T04:58:59;30.60;;;29.20;;
12038;SDS011;6080;48.818;9.526;2023-04-24T05:01:25;15.07;;;14.27;;
12038;SDS011;6080;48.818;9.526;2023-04-24T05:03:52;5.17;;;4.90;;
12038;SDS011;6080;48.818;9.526;2023-04-24T05:06:18;6.67;;;6.20;;
12038;SDS011;6080;48.818;9.526;2023-04-24T05:08:44;7.90;;;7.50;;
12038;SDS011;6080;48.818;9.526;2023-04-24T05:11:10;8.27;;;7.87;;
12038;SDS011;6080;48.818;9.526;2023-04-24T05:13:36;7.60;;;7.23;;
12038;SDS011;6080;48.818;9.526;2023-04-24T05:16:02;5.33;;;4.90;;
12038;SDS011;6080;48.818;9.526;2023-04-24T05:18:27;4.87;;;4.67;;
12038;SDS011;6080;48.818;9.526;2023-04-24T05:20:53;7.93;;;7.47;;
12038;SDS011;6080;48.818;9.526;2023-04-24T05:23:19;13.23;;;12.63;;
12038;SDS011;6080;48.818;9.526;2023-04-24T05:25:45;4.77;;;4.57;;
12038;SDS011;6080;48.818;9.526;2023-04-24T05:28:11;5.73;;;5.50;;
12038;SDS011;6080;48.818;9.526;2023-04-24T05:30:37;15.03;;;14.33;;
12038;SDS011;6080;48.818;9.526;2023-04-24T05:33:02;7.10;;;6.60;;
12038;SDS011;6080;48.818;9.526;2023-04-24T05:35:28;8.90;;;8.50;;
12038;SDS011;6080;48.818;9.526;2023-04-24T05:37:54;5.80;;;5.50;;
12038;SDS011;6080;48.818;9.526;2023-04-24T05:40:20;5.90;;;5.70;;
12038;SDS011;6080;48.818;9.526;2023-04-24T05:42:46;9.43;;;8.83;;
12038;SDS011;6080;48.818;9.526;2023-04-24T05:45:11;14.77;;;14.03;;
12038;SDS011;6080;48.818;9.526;2023-04-24T05:47:42;9.90;;;9.50;;
12038;SDS011;6080;48.818;9.526;2023-04-24T05:50:09;8.67;;;8.27;;
12038;SDS011;6080;48.818;9.526;2023-04-24T05:52:35;9.27;;;8.43;;
12038;SDS011;6080;48.818;9.526;2023-04-24T05:55:01;8.50;;;8.10;;
12038;SDS011;6080;48.818;9.526;2023-04-24T05:57:27;11.40;;;10.73;;
12038;SDS011;6080;48.818;9.526;2023-04-24T05:59:53;13.30;;;12.70;;
12038;SDS011;6080;48.818;9.526;2023-04-24T06:02:18;10.53;;;9.93;;
12038;SDS011;6080;48.818;9.526;2023-04-24T06:04:44;12.43;;;11.73;;
12038;SDS011;6080;48.818;9.526;2023-04-24T06:07:10;13.03;;;12.43;;
12038;SDS011;6080;48.818;9.526;2023-04-24T06:09:36;8.17;;;7.77;;
12038;SDS011;6080;48.818;9.526;2023-04-24T06:12:02;7.40;;;7.10;;
12038;SDS011;6080;48.818;9.526;2023-04-24T06:14:28;9.90;;;9.40;;
12038;SDS011;6080;48.818;9.526;2023-04-24T06:16:54;8.03;;;7.53;;
12038;SDS011;6080;48.818;9.526;2023-04-24T06:19:20;13.40;;;12.70;;
12038;SDS011;6080;48.818;9.526;2023-04-24T06:21:45;9.47;;;9.07;;
12038;SDS011;6080;48.818;9.526;2023-04-24T06:24:13;7.07;;;6.77;;
12038;SDS011;6080;48.818;9.526;2023-04-24T06:26:40;7.17;;;6.87;;
12038;SDS011;6080;48.818;9.526;2023-04-24T06:29:06;7.30;;;6.67;;
12038;SDS011;6080;48.818;9.526;2023-04-24T06:31:32;7.00;;;6.60;;
12038;SDS011;6080;48.818;9.526;2023-04-24T06:34:02;6.20;;;5.70;;
12038;SDS011;6080;48.818;9.526;2023-04-24T06:36:28;6.03;;;5.63;;
12038;SDS011;6080;48.818;9.526;2023-04-24T06:38:55;9.60;;;9.20;;
12038;SDS011;6080;48.818;9.526;2023-04-24T06:41:22;9.73;;;9.23;;
12038;SDS011;6080;48.818;9.526;2023-04-24T06:43:48;9.83;;;9.23;;
12038;SDS011;6080;48.818;9.526;2023-04-24T06:46:13;12.87;;;12.27;;
12038;SDS011;6080;48.818;9.526;2023-04-24T06:48:39;10.43;;;9.93;;
12038;SDS011;6080;48.818;9.526;2023-04-24T06:51:05;10.40;;;9.83;;
12038;SDS011;6080;48.818;9.526;2023-04-24T06:53:31;6.67;;;6.37;;
12038;SDS011;6080;48.818;9.526;2023-04-24T06:55:56;19.03;;;18.20;;
12038;SDS011;6080;48.818;9.526;2023-04-24T06:58:23;7.20;;;6.90;;
12038;SDS011;6080;48.818;9.526;2023-04-24T07:00:50;5.70;;;5.50;;
12038;SDS011;6080;48.818;9.526;2023-04-24T07:03:16;13.00;;;12.27;;
12038;SDS011;6080;48.818;9.526;2023-04-24T07:05:41;7.70;;;7.40;;
12038;SDS011;6080;48.818;9.526;2023-04-24T07:08:07;7.07;;;6.67;;
12038;SDS011;6080;48.818;9.526;2023-04-24T07:10:34;6.93;;;6.43;;
12038;SDS011;6080;48.818;9.526;2023-04-24T07:13:00;5.03;;;4.80;;
12038;SDS011;6080;48.818;9.526;2023-04-24T07:15:26;6.47;;;6.07;;
12038;SDS011;6080;48.818;9.526;2023-04-24T07:17:52;7.13;;;6.83;;
12038;SDS011;6080;48.818;9.526;2023-04-24T07:20:18;13.03;;;12.50;;
12038;SDS011;6080;48.818;9.526;2023-04-24T07:22:43;15.53;;;14.83;;
12038;SDS011;6080;48.818;9.526;2023-04-24T07:25:09;5.63;;;5.13;;
12038;SDS011;6080;48.818;9.526;2023-04-24T07:27:35;5.47;;;5.10;;
12038;SDS011;6080;48.818;9.526;2023-04-24T07:30:02;11.43;;;10.83;;
12038;SDS011;6080;48.818;9.526;2023-04-24T07:32:29;18.43;;;17.40;;
12038;SDS011;6080;48.818;9.526;2023-04-24T07:34:55;10.63;;;9.93;;
12038;SDS011;6080;48.818;9.526;2023-04-24T07:37:21;15.30;;;14.50;;
12038;SDS011;6080;48.818;9.526;2023-04-24T07:39:47;21.80;;;20.40;;
12038;SDS011;6080;48.818;9.526;2023-04-24T07:42:13;20.40;;;19.50;;
12038;SDS011;6080;48.818;9.526;2023-04-24T07:44:39;5.00;;;4.80;;
12038;SDS011;6080;48.818;9.526;2023-04-24T07:47:04;44.90;;;42.67;;
12038;SDS011;6080;48.818;9.526;2023-04-24T07:49:30;42.67;;;40.60;;
12038;SDS011;6080;48.818;9.526;2023-04-24T07:51:57;13.20;;;12.57;;
12038;SDS011;6080;48.818;9.526;2023-04-24T07:54:22;4.33;;;4.03;;
12038;SDS011;6080;48.818;9.526;2023-04-24T07:56:48;4.33;;;4.03;;
12038;SDS011;6080;48.818;9.526;2023-04-24T07:59:14;19.50;;;18.50;;
12038;SDS011;6080;48.818;9.526;2023-04-24T08:01:40;22.03;;;20.87;;
12038;SDS011;6080;48.818;9.526;2023-04-24T08:04:06;14.27;;;13.60;;
12038;SDS011;6080;48.818;9.526;2023-04-24T08:06:32;4.00;;;3.70;;
12038;SDS011;6080;48.818;9.526;2023-04-24T08:08:59;5.63;;;4.17;;
12038;SDS011;6080;48.818;9.526;2023-04-24T08:11:25;5.20;;;5.00;;
12038;SDS011;6080;48.818;9.526;2023-04-24T08:13:51;6.47;;;6.00;;
12038;SDS011;6080;48.818;9.526;2023-04-24T08:16:17;12.07;;;11.47;;
12038;SDS011;6080;48.818;9.526;2023-04-24T08:18:43;39.83;;;37.83;;
12038;SDS011;6080;48.818;9.526;2023-04-24T08:21:09;25.17;;;23.63;;
12038;SDS011;6080;48.818;9.526;2023-04-24T08:23:34;4.70;;;4.40;;
12038;SDS011;6080;48.818;9.526;2023-04-24T08:26:00;3.60;;;3.50;;
12038;SDS011;6080;48.818;9.526;2023-04-24T08:28:26;5.13;;;4.93;;
12038;SDS011;6080;48.818;9.526;2023-04-24T08:30:52;4.47;;;4.03;;
12038;SDS011;6080;48.818;9.526;2023-04-24T08:33:22;7.27;;;6.97;;
12038;SDS011;6080;48.818;9.526;2023-04-24T08:35:48;3.80;;;3.60;;
12038;SDS011;6080;48.818;9.526;2023-04-24T08:38:15;4.77;;;4.47;;
12038;SDS011;6080;48.818;9.526;2023-04-24T08:40:41;4.67;;;4.37;;
12038;SDS011;6080;48.818;9.526;2023-04-24T08:43:07;4.20;;;4.00;;
12038;SDS011;6080;48.818;9.526;2023-04-24T08:45:34;4.60;;;4.20;;
12038;SDS011;6080;48.818;9.526;2023-04-24T08:48:00;4.47;;;4.27;;
12038;SDS011;6080;48.818;9.526;2023-04-24T08:50:26;4.73;;;4.43;;
12038;SDS011;6080;48.818;9.526;2023-04-24T08:52:53;5.17;;;4.70;;
12038;SDS011;6080;48.818;9.526;2023-04-24T08:55:19;5.10;;;4.90;;
12038;SDS011;6080;48.818;9.526;2023-04-24T08:57:50;4.37;;;4.20;;
12038;SDS011;6080;48.818;9.526;2023-04-24T09:00:18;5.13;;;4.80;;
12038;SDS011;6080;48.818;9.526;2023-04-24T09:02:45;4.60;;;4.30;;
12038;SDS011;6080;48.818;9.526;2023-04-24T09:05:14;6.37;;;6.07;;
12038;SDS011;6080;48.818;9.526;2023-04-24T09:07:44;6.13;;;5.83;;
12038;SDS011;6080;48.818;9.526;2023-04-24T09:10:13;4.27;;;4.17;;
12038;SDS011;6080;48.818;9.526;2023-04-24T09:12:39;5.03;;;4.73;;
12038;SDS011;6080;48.818;9.526;2023-04-24T09:15:06;7.43;;;7.00;;
12038;SDS011;6080;48.818;9.526;2023-04-24T09:17:33;5.37;;;5.17;;
12038;SDS011;6080;48.818;9.526;2023-04-24T09:19:59;5.03;;;4.63;;
12038;SDS011;6080;48.818;9.526;2023-04-24T09:22:25;7.17;;;6.80;;
12038;SDS011;6080;48.818;9.526;2023-04-24T09:25:05;14.47;;;13.70;;
12038;SDS011;6080;48.818;9.526;2023-04-24T09:27:36;16.23;;;15.30;;
12038;SDS011;6080;48.818;9.526;2023-04-24T09:30:10;12.17;;;11.50;;
12038;SDS011;6080;48.818;9.526;2023-04-24T09:32:36;8.67;;;8.17;;
12038;SDS011;6080;48.818;9.526;2023-04-24T09:37:37;11.03;;;10.53;;
12038;SDS011;6080;48.818;9.526;2023-04-24T09:40:22;10.73;;;10.23;;
12038;SDS011;6080;48.818;9.526;2023-04-24T09:42:52;12.20;;;11.63;;
12038;SDS011;6080;48.818;9.526;2023-04-24T09:45:19;11.17;;;10.57;;
12038;SDS011;6080;48.818;9.526;2023-04-24T09:47:46;8.93;;;8.53;;
12038;SDS011;6080;48.818;9.526;2023-04-24T09:50:16;7.77;;;7.47;;
12038;SDS011;6080;48.818;9.526;2023-04-24T09:52:46;24.73;;;23.53;;
12038;SDS011;6080;48.818;9.526;2023-04-24T09:55:22;29.50;;;28.03;;
12038;SDS011;6080;48.818;9.526;2023-04-24T09:57:54;31.20;;;29.73;;
12038;SDS011;6080;48.818;9.526;2023-04-24T10:00:25;30.40;;;28.97;;
12038;SDS011;6080;48.818;9.526;2023-04-24T10:05:30;6.93;;;6.63;;
12038;SDS011;6080;48.818;9.526;2023-04-24T10:08:03;9.77;;;9.37;;
12038;SDS011;6080;48.818;9.526;2023-04-24T10:10:34;7.00;;;6.70;;
12038;SDS011;6080;48.818;9.526;2023-04-24T10:13:03;8.27;;;7.50;;
12038;SDS011;6080;48.818;9.526;2023-04-24T10:15:29;6.67;;;6.33;;
12038;SDS011;6080;48.818;9.526;2023-04-24T10:17:57;6.03;;;5.73;;
12038;SDS011;6080;48.818;9.526;2023-04-24T10:20:25;5.93;;;5.63;;
12038;SDS011;6080;48.818;9.526;2023-04-24T10:22:54;3.97;;;3.87;;
12038;SDS011;6080;48.818;9.526;2023-04-24T10:25:22;6.03;;;5.60;;
12038;SDS011;6080;48.818;9.526;2023-04-24T10:27:51;4.90;;;4.50;;
12038;SDS011;6080;48.818;9.526;2023-04-24T10:30:20;4.90;;;4.57;;
12038;SDS011;6080;48.818;9.526;2023-04-24T10:32:46;4.63;;;4.33;;
12038;SDS011;6080;48.818;9.526;2023-04-24T10:35:13;4.53;;;4.33;;
12038;SDS011;6080;48.818;9.526;2023-04-24T10:37:44;4.70;;;4.50;;
12038;SDS011;6080;48.818;9.526;2023-04-24T10:40:11;4.60;;;4.40;;
12038;SDS011;6080;48.818;9.526;2023-04-24T10:42:43;4.53;;;4.20;;
12038;SDS011;6080;48.818;9.526;2023-04-24T10:45:16;7.10;;;6.60;;
12038;SDS011;6080;48.818;9.526;2023-04-24T10:47:50;8.93;;;8.43;;
12038;SDS011;6080;48.818;9.526;2023-04-24T10:50:17;7.93;;;7.63;;
12038;SDS011;6080;48.818;9.526;2023-04-24T10:52:43;9.40;;;9.00;;
12038;SDS011;6080;48.818;9.526;2023-04-24T10:55:10;8.67;;;8.27;;
12038;SDS011;6080;48.818;9.526;2023-04-24T10:57:38;5.43;;;5.20;;
12038;SDS011;6080;48.818;9.526;2023-04-24T11:00:14;4.90;;;4.70;;
12038;SDS011;6080;48.818;9.526;2023-04-24T11:02:41;4.13;;;3.87;;
12038;SDS011;6080;48.818;9.526;2023-04-24T11:05:17;6.63;;;6.33;;
12038;SDS011;6080;48.818;9.526;2023-04-24T11:11:18;10.13;;;9.73;;
12038;SDS011;6080;48.818;9.526;2023-04-24T11:13:28;9.50;;;9.00;;
12038;SDS011;6080;48.818;9.526;2023-04-24T11:16:25;8.47;;;7.97;;
12038;SDS011;6080;48.818;9.526;2023-04-24T11:21:48;8.17;;;7.83;;
12038;SDS011;6080;48.818;9.526;2023-04-24T11:34:52;9.90;;;9.50;;
12038;SDS011;6080;48.818;9.526;2023-04-24T11:37:19;9.17;;;8.67;;
12038;SDS011;6080;48.818;9.526;2023-04-24T11:39:46;10.00;;;9.50;;
12038;SDS011;6080;48.818;9.526;2023-04-24T11:42:15;9.60;;;9.20;;
12038;SDS011;6080;48.818;9.526;2023-04-24T11:44:41;10.23;;;9.73;;
12038;SDS011;6080;48.818;9.526;2023-04-24T11:47:08;9.70;;;9.27;;
12038;SDS011;6080;48.818;9.526;2023-04-24T11:49:36;10.63;;;10.20;;
12038;SDS011;6080;48.818;9.526;2023-04-24T11:52:02;8.00;;;7.70;;
12038;SDS011;6080;48.818;9.526;2023-04-24T11:54:29;6.30;;;6.10;;
12038;SDS011;6080;48.818;9.526;2023-04-24T11:56:55;6.47;;;6.17;;
12038;SDS011;6080;48.818;9.526;2023-04-24T11:59:21;8.67;;;8.33;;
12038;SDS011;6080;48.818;9.526;2023-04-24T12:01:48;9.30;;;8.90;;
12038;SDS011;6080;48.818;9.526;2023-04-24T12:04:15;10.07;;;9.63;;
12038;SDS011;6080;48.818;9.526;2023-04-24T12:09:27;7.20;;;6.60;;
12038;SDS011;6080;48.818;9.526;2023-04-24T12:11:56;5.20;;;5.00;;
12038;SDS011;6080;48.818;9.526;2023-04-24T12:14:22;5.67;;;5.47;;
12038;SDS011;6080;48.818;9.526;2023-04-24T12:16:49;6.67;;;6.43;;
12038;SDS011;6080;48.818;9.526;2023-04-24T12:19:21;7.23;;;6.83;;
12038;SDS011;6080;48.818;9.526;2023-04-24T12:22:03;7.77;;;7.47;;
12038;SDS011;6080;48.818;9.526;2023-04-24T12:24:30;11.90;;;11.00;;
12038;SDS011;6080;48.818;9.526;2023-04-24T12:26:57;10.87;;;10.37;;
12038;SDS011;6080;48.818;9.526;2023-04-24T12:29:24;8.83;;;8.47;;
12038;SDS011;6080;48.818;9.526;2023-04-24T12:31:50;7.00;;;6.60;;
12038;SDS011;6080;48.818;9.526;2023-04-24T12:34:20;6.67;;;6.23;;
12038;SDS011;6080;48.818;9.526;2023-04-24T12:36:48;4.70;;;4.60;;
12038;SDS011;6080;48.818;9.526;2023-04-24T12:39:14;10.20;;;9.53;;
12038;SDS011;6080;48.818;9.526;2023-04-24T12:41:54;8.97;;;8.57;;
12038;SDS011;6080;48.818;9.526;2023-04-24T12:44:34;9.97;;;9.37;;
12038;SDS011;6080;48.818;9.526;2023-04-24T12:47:01;4.70;;;4.50;;
12038;SDS011;6080;48.818;9.526;2023-04-24T12:49:27;4.83;;;4.63;;
12038;SDS011;6080;48.818;9.526;2023-04-24T12:51:56;5.13;;;4.83;;
12038;SDS011;6080;48.818;9.526;2023-04-24T12:54:22;11.17;;;10.50;;
12038;SDS011;6080;48.818;9.526;2023-04-24T12:56:47;10.30;;;9.90;;
12038;SDS011;6080;48.818;9.526;2023-04-24T12:59:13;11.50;;;10.90;;
12038;SDS011;6080;48.818;9.526;2023-04-24T13:01:39;12.50;;;11.80;;
12038;SDS011;6080;48.818;9.526;2023-04-24T13:04:05;12.03;;;11.43;;
12038;SDS011;6080;48.818;9.526;2023-04-24T13:06:32;11.37;;;10.87;;
12038;SDS011;6080;48.818;9.526;2023-04-24T13:08:58;10.20;;;9.70;;
12038;SDS011;6080;48.818;9.526;2023-04-24T13:11:24;9.67;;;9.00;;
12038;SDS011;6080;48.818;9.526;2023-04-24T13:13:50;9.90;;;9.30;;
12038;SDS011;6080;48.818;9.526;2023-04-24T13:16:15;10.30;;;9.80;;
12038;SDS011;6080;48.818;9.526;2023-04-24T13:18:42;11.13;;;10.63;;
12038;SDS011;6080;48.818;9.526;2023-04-24T13:21:08;10.50;;;9.60;;
12038;SDS011;6080;48.818;9.526;2023-04-24T13:23:33;11.30;;;10.70;;
12038;SDS011;6080;48.818;9.526;2023-04-24T13:25:59;11.00;;;10.40;;
12038;SDS011;6080;48.818;9.526;2023-04-24T13:28:26;11.40;;;10.87;;
12038;SDS011;6080;48.818;9.526;2023-04-24T13:30:52;12.13;;;11.33;;
12038;SDS011;6080;48.818;9.526;2023-04-24T13:33:18;7.97;;;7.57;;
12038;SDS011;6080;48.818;9.526;2023-04-24T13:35:44;10.47;;;9.97;;
12038;SDS011;6080;48.818;9.526;2023-04-24T13:38:10;22.60;;;21.50;;
12038;SDS011;6080;48.818;9.526;2023-04-24T13:40:35;12.43;;;11.53;;
12038;SDS011;6080;48.818;9.526;2023-04-24T13:43:02;4.27;;;3.97;;
12038;SDS011;6080;48.818;9.526;2023-04-24T13:45:28;7.43;;;7.13;;
12038;SDS011;6080;48.818;9.526;2023-04-24T13:47:54;4.87;;;4.40;;
12038;SDS011;6080;48.818;9.526;2023-04-24T13:50:22;4.30;;;4.07;;
12038;SDS011;6080;48.818;9.526;2023-04-24T13:52:47;3.87;;;3.67;;
12038;SDS011;6080;48.818;9.526;2023-04-24T13:55:13;9.20;;;8.70;;
12038;SDS011;6080;48.818;9.526;2023-04-24T13:57:39;15.77;;;14.90;;
12038;SDS011;6080;48.818;9.526;2023-04-24T14:00:05;12.90;;;11.97;;
12038;SDS011;6080;48.818;9.526;2023-04-24T14:02:31;5.53;;;5.30;;
12038;SDS011;6080;48.818;9.526;2023-04-24T14:04:57;6.57;;;5.90;;
12038;SDS011;6080;48.818;9.526;2023-04-24T14:07:23;8.23;;;7.83;;
12038;SDS011;6080;48.818;9.526;2023-04-24T14:09:49;6.43;;;6.13;;
12038;SDS011;6080;48.818;9.526;2023-04-24T14:12:15;7.77;;;7.40;;
12038;SDS011;6080;48.818;9.526;2023-04-24T14:14:44;9.07;;;8.57;;
12038;SDS011;6080;48.818;9.526;2023-04-24T14:17:11;6.20;;;5.90;;
12038;SDS011;6080;48.818;9.526;2023-04-24T14:19:37;4.57;;;4.17;;
12038;SDS011;6080;48.818;9.526;2023-04-24T14:22:02;8.13;;;7.73;;
12038;SDS011;6080;48.818;9.526;2023-04-24T14:24:28;38.30;;;36.50;;
12038;SDS011;6080;48.818;9.526;2023-04-24T14:26:54;22.33;;;21.23;;
12038;SDS011;6080;48.818;9.526;2023-04-24T14:29:21;3.70;;;3.60;;
12038;SDS011;6080;48.818;9.526;2023-04-24T14:31:47;7.80;;;7.50;;
12038;SDS011;6080;48.818;9.526;2023-04-24T14:34:13;4.10;;;3.90;;
12038;SDS011;6080;48.818;9.526;2023-04-24T14:36:39;5.47;;;5.27;;
12038;SDS011;6080;48.818;9.526;2023-04-24T14:39:05;3.77;;;3.67;;
12038;SDS011;6080;48.818;9.526;2023-04-24T14:41:32;3.60;;;3.40;;
12038;SDS011;6080;48.818;9.526;2023-04-24T14:44:01;3.57;;;3.40;;
12038;SDS011;6080;48.818;9.526;2023-04-24T14:46:28;5.90;;;5.60;;
12038;SDS011;6080;48.818;9.526;2023-04-24T14:48:55;20.67;;;19.60;;
12038;SDS011;6080;48.818;9.526;2023-04-24T14:51:22;7.53;;;7.23;;
12038;SDS011;6080;48.818;9.526;2023-04-24T14:53:48;14.87;;;14.23;;
12038;SDS011;6080;48.818;9.526;2023-04-24T14:56:14;16.90;;;16.10;;
12038;SDS011;6080;48.818;9.526;2023-04-24T14:58:40;20.63;;;19.73;;
12038;SDS011;6080;48.818;9.526;2023-04-24T15:01:06;5.53;;;5.33;;
12038;SDS011;6080;48.818;9.526;2023-04-24T15:03:31;6.77;;;6.30;;
12038;SDS011;6080;48.818;9.526;2023-04-24T15:05:57;5.80;;;5.60;;
12038;SDS011;6080;48.818;9.526;2023-04-24T15:08:23;8.80;;;8.43;;
12038;SDS011;6080;48.818;9.526;2023-04-24T15:10:49;12.90;;;12.33;;
12038;SDS011;6080;48.818;9.526;2023-04-24T15:13:15;4.23;;;4.10;;
12038;SDS011;6080;48.818;9.526;2023-04-24T15:15:40;5.60;;;5.30;;
12038;SDS011;6080;48.818;9.526;2023-04-24T15:18:07;5.20;;;5.00;;
12038;SDS011;6080;48.818;9.526;2023-04-24T15:20:35;5.93;;;5.73;;
12038;SDS011;6080;48.818;9.526;2023-04-24T15:23:01;15.70;;;14.90;;
12038;SDS011;6080;48.818;9.526;2023-04-24T15:25:27;14.47;;;13.43;;
12038;SDS011;6080;48.818;9.526;2023-04-24T15:27:53;15.30;;;14.50;;
12038;SDS011;6080;48.818;9.526;2023-04-24T15:30:19;12.13;;;11.63;;
12038;SDS011;6080;48.818;9.526;2023-04-24T15:32:45;11.33;;;10.83;;
12038;SDS011;6080;48.818;9.526;2023-04-24T15:35:11;6.50;;;6.20;;
12038;SDS011;6080;48.818;9.526;2023-04-24T15:37:37;5.27;;;5.07;;
12038;SDS011;6080;48.818;9.526;2023-04-24T15:40:03;5.73;;;5.33;;
12038;SDS011;6080;48.818;9.526;2023-04-24T15:42:32;9.97;;;9.37;;
12038;SDS011;6080;48.818;9.526;2023-04-24T15:44:58;14.70;;;13.90;;
12038;SDS011;6080;48.818;9.526;2023-04-24T15:47:24;8.03;;;7.63;;
12038;SDS011;6080;48.818;9.526;2023-04-24T15:49:51;11.57;;;10.90;;
12038;SDS011;6080;48.818;9.526;2023-04-24T15:52:18;8.27;;;7.87;;
12038;SDS011;6080;48.818;9.526;2023-04-24T15:54:43;12.33;;;11.80;;
12038;SDS011;6080;48.818;9.526;2023-04-24T15:57:09;15.87;;;14.87;;
12038;SDS011;6080;48.818;9.526;2023-04-24T15:59:37;34.17;;;32.47;;
12038;SDS011;6080;48.818;9.526;2023-04-24T16:02:03;46.73;;;44.43;;
12038;SDS011;6080;48.818;9.526;2023-04-24T16:04:29;46.17;;;43.77;;
12038;SDS011;6080;48.818;9.526;2023-04-24T16:06:55;19.90;;;18.90;;
12038;SDS011;6080;48.818;9.526;2023-04-24T16:09:22;16.57;;;15.77;;
12038;SDS011;6080;48.818;9.526;2023-04-24T16:11:47;21.07;;;19.90;;
12038;SDS011;6080;48.818;9.526;2023-04-24T16:14:13;6.07;;;5.77;;
12038;SDS011;6080;48.818;9.526;2023-04-24T16:16:39;4.90;;;4.53;;
12038;SDS011;6080;48.818;9.526;2023-04-24T16:19:06;7.57;;;7.17;;
12038;SDS011;6080;48.818;9.526;2023-04-24T16:21:32;14.50;;;13.30;;
12038;SDS011;6080;48.818;9.526;2023-04-24T16:23:58;26.60;;;25.10;;
12038;SDS011;6080;48.818;9.526;2023-04-24T16:26:24;25.30;;;24.00;;
12038;SDS011;6080;48.818;9.526;2023-04-24T16:28:50;26.63;;;25.07;;
12038;SDS011;6080;48.818;9.526;2023-04-24T16:31:16;27.83;;;26.43;;
12038;SDS011;6080;48.818;9.526;2023-04-24T16:33:42;32.77;;;31.17;;
12038;SDS011;6080;48.818;9.526;2023-04-24T16:36:08;19.10;;;18.23;;
12038;SDS011;6080;48.818;9.526;2023-04-24T16:38:34;16.63;;;15.90;;
12038;SDS011;6080;48.818;9.526;2023-04-24T16:41:00;11.07;;;10.43;;
12038;SDS011;6080;48.818;9.526;2023-04-24T16:43:25;6.50;;;6.13;;
12038;SDS011;6080;48.818;9.526;2023-04-24T16:45:52;4.50;;;4.30;;
12038;SDS011;6080;48.818;9.526;2023-04-24T16:48:18;5.43;;;4.10;;
12038;SDS011;6080;48.818;9.526;2023-04-24T16:50:44;3.97;;;3.83;;
12038;SDS011;6080;48.818;9.526;2023-04-24T16:53:12;4.27;;;3.93;;
12038;SDS011;6080;48.818;9.526;2023-04-24T16:55:38;4.43;;;4.03;;
12038;SDS011;6080;48.818;9.526;2023-04-24T16:58:04;4.27;;;4.07;;
12038;SDS011;6080;48.818;9.526;2023-04-24T17:00:30;6.63;;;6.33;;
12038;SDS011;6080;48.818;9.526;2023-04-24T17:02:55;7.87;;;7.33;;
12038;SDS011;6080;48.818;9.526;2023-04-24T17:05:21;4.80;;;4.50;;
12038;SDS011;6080;48.818;9.526;2023-04-24T17:07:50;5.67;;;5.40;;
12038;SDS011;6080;48.818;9.526;2023-04-24T17:10:16;4.97;;;4.70;;
12038;SDS011;6080;48.818;9.526;2023-04-24T17:12:42;7.37;;;6.97;;
12038;SDS011;6080;48.818;9.526;2023-04-24T17:15:08;4.83;;;4.63;;
12038;SDS011;6080;48.818;9.526;2023-04-24T17:17:34;5.83;;;5.57;;
12038;SDS011;6080;48.818;9.526;2023-04-24T17:20:00;6.97;;;6.67;;
12038;SDS011;6080;48.818;9.526;2023-04-24T17:22:26;10.83;;;10.27;;
12038;SDS011;6080;48.818;9.526;2023-04-24T17:24:51;6.83;;;6.53;;
12038;SDS011;6080;48.818;9.526;2023-04-24T17:27:17;5.87;;;5.57;;
12038;SDS011;6080;48.818;9.526;2023-04-24T17:29:43;6.40;;;5.83;;
12038;SDS011;6080;48.818;9.526;2023-04-24T17:32:09;5.10;;;4.80;;
12038;SDS011;6080;48.818;9.526;2023-04-24T17:34:34;5.60;;;5.30;;
12038;SDS011;6080;48.818;9.526;2023-04-24T17:37:00;4.83;;;4.50;;
12038;SDS011;6080;48.818;9.526;2023-04-24T17:39:28;4.60;;;4.30;;
12038;SDS011;6080;48.818;9.526;2023-04-24T17:41:54;4.67;;;4.00;;
12038;SDS011;6080;48.818;9.526;2023-04-24T17:44:20;4.33;;;4.13;;
12038;SDS011;6080;48.818;9.526;2023-04-24T17:46:46;4.63;;;4.37;;
12038;SDS011;6080;48.818;9.526;2023-04-24T17:49:15;5.20;;;4.83;;
12038;SDS011;6080;48.818;9.526;2023-04-24T17:51:41;5.40;;;5.10;;
12038;SDS011;6080;48.818;9.526;2023-04-24T17:54:06;6.83;;;6.30;;
12038;SDS011;6080;48.818;9.526;2023-04-24T17:56:32;5.73;;;5.43;;
12038;SDS011;6080;48.818;9.526;2023-04-24T17:58:58;10.03;;;9.13;;
12038;SDS011;6080;48.818;9.526;2023-04-24T18:01:24;8.60;;;7.73;;
12038;SDS011;6080;48.818;9.526;2023-04-24T18:03:52;6.80;;;6.30;;
12038;SDS011;6080;48.818;9.526;2023-04-24T18:06:17;8.20;;;7.40;;
12038;SDS011;6080;48.818;9.526;2023-04-24T18:08:43;6.40;;;6.00;;
12038;SDS011;6080;48.818;9.526;2023-04-24T18:11:09;7.70;;;6.50;;
12038;SDS011;6080;48.818;9.526;2023-04-24T18:13:35;5.77;;;5.33;;